----------------------------------------------------------------------------------------------------------------------------------------------------------
    Averages\Extremes for day :September 2018
----------------------------------------------------------------------------------------------------------------------------------------------------------
Day      Temp         Wind       Gust       Rain       Max Temp     Min Temp   Av Hum   Av Baro       Av Dir       Wind run   Windchill  Sunshine  ET  Max Solar  Max UV
----------------------------------------------------------------------------------------------------------------------------------------------------------
 01      06.2C    04.1kmh    25.9kmh    00.0mm       13.9C       -0.5C     070%     1008.1 hPa     223  ( SW)  098.0km   -1.5C    00:00   1.1    120.0    3.0   
 02      04.9C    02.9kmh    18.5kmh    00.0mm       15.7C       -2.3C     064%     1025.0 hPa     217  ( SW)  070.0km   -4.1C    00:00   1.5    120.0    3.0   
 03      06.0C    02.8kmh    20.4kmh    00.0mm       13.5C       00.7C     068%     1034.3 hPa     330  (NNW)  066.9km   -0.1C    00:00   1.2    120.0    3.0   
 04      07.2C    06.6kmh    25.9kmh    00.0mm       13.3C       01.7C     074%     1034.5 hPa     013  (NNE)  158.1km   00.2C    00:00   1.4    160.0    4.0   
 05      11.6C    14.1kmh    40.7kmh    00.0mm       15.8C       08.0C     069%     1026.2 hPa     021  (NNE)  339.0km   05.5C    00:00   3.0    120.0    3.0   
 06      11.1C    13.4kmh    40.7kmh    22.0mm       12.1C       09.3C     081%     1013.8 hPa     022  (NNE)  320.9km   07.9C    00:00   1.1    40.0    1.0   
 07      09.3C    02.7kmh    20.4kmh    00.0mm       17.6C       01.4C     074%     1014.0 hPa     268  ( W )  064.2km   01.0C    00:00   0.9    120.0    3.0   
 08      06.7C    04.0kmh    20.4kmh    01.0mm       13.6C       00.1C     080%     1019.0 hPa     357  ( N )  094.9km   -0.8C    00:00   0.7    120.0    3.0   
 09      09.3C    05.5kmh    24.1kmh    03.1mm       17.0C       03.1C     071%     1014.7 hPa     03  ( N )  131.2km   02.7C    00:00   1.5    120.0    3.0   
 10      09.1C    03.7kmh    16.7kmh    00.0mm       18.7C       02.3C     077%     1023.9 hPa     05  ( N )  088.5km   00.8C    00:00   1.3    120.0    3.0   
 11      09.6C    08.4kmh    46.3kmh    00.0mm       14.4C       02.9C     078%     1016.1 hPa     03  ( N )  201.6km   02.3C    00:00   1.1    80.0    2.0   
 12      10.5C    11.1kmh    40.7kmh    01.0mm       16.2C       07.1C     065%     1011.9 hPa     027  (NNE)  266.6km   03.9C    00:00   2.6    200.0    5.0   
 13      10.1C    10.2kmh    37.0kmh    04.1mm       11.7C       07.7C     086%     1015.6 hPa     028  (NNE)  245.8km   06.0C    00:00   0.7    40.0    1.0   
 14      12.2C    11.2kmh    37.0kmh    00.0mm       16.1C       09.3C     067%     1013.0 hPa     012  (NNE)  267.9km   06.9C    00:00   2.5    120.0    3.0   
 15      08.9C    10.1kmh    40.7kmh    11.0mm       14.0C       00.4C     062%     1003.0 hPa     359  ( N )  243.1km   -1.4C    00:00   1.6    160.0    4.0   
 16      04.6C    02.5kmh    16.7kmh    00.0mm       14.5C       -2.1C     067%     1018.1 hPa     251  (WSW)  033.3km   -2.5C    00:00   1.4    0.0    0.0   
 17      09.0C    08.9kmh    33.3kmh    09.2mm       14.0C       06.7C     082%     1017.6 hPa     016  (NNE)  154.6km   05.6C    00:00   1.9    280.0    5.0   
 18      10.0C    10.2kmh    35.2kmh    02.0mm       14.0C       06.9C     071%     1011.4 hPa     017  (NNE)  244.3km   05.1C    00:00   0.8    160.0    4.0   
 19      07.1C    02.6kmh    20.4kmh    01.0mm       15.3C       00.5C     072%     1012.7 hPa     227  ( SW)  062.3km   -0.3C    00:00   1.1    200.0    5.0   
 20      07.0C    03.5kmh    22.2kmh    00.0mm       16.3C       -1.4C     074%     1021.2 hPa     338  (NNW)  084.6km   -2.3C    00:00   1.3    200.0    5.0   
 21      10.0C    07.4kmh    27.8kmh    00.0mm       15.9C       04.0C     079%     1023.8 hPa     019  (NNE)  178.5km   03.6C    00:00   0.4    240.0    6.0   
 22      06.9C    04.4kmh    18.5kmh    00.0mm       10.4C       04.3C     085%     1025.6 hPa     030  (NNE)  064.5km   03.1C    00:00   1.3    140.0    2.0   
 23      07.1C    04.3kmh    27.8kmh    00.0mm       14.9C       -0.2C     060%     1031.3 hPa     214  ( SW)  102.8km   -1.7C    00:00   1.6    240.0    6.0   
 24      05.7C    03.5kmh    16.7kmh    00.0mm       15.9C       -0.8C     057%     1035.9 hPa     261  ( W )  083.2km   -2.6C    00:00   1.2    160.0    4.0   
 25      07.4C    02.7kmh    16.7kmh    00.0mm       18.5C       -1.0C     062%     1032.1 hPa     254  (WSW)  065.0km   -2.4C    00:00   0.0    240.0    6.0   
---------------------------------------------------------------------------------------------
   Averages\Extremes for the month of September 2018
 
 ---------------------------------------------------------------------------------------------
 Average temperature     = 8.4C
 Average humidity        = 71%
 Average dewpoint        = 3.0C
 Average barometer       = 1020.1 hPa
 Average windspeed       = 6.5 km/h
 Average gustspeed       = 8.8 km/h
 Average direction       = 11 ( N )
 Rainfall for month      = 54.4 mm
 Rainfall for year       = 684.6 mm
 Maximum rain per minute = 6.4 mm on day 15 at time 10:54
 Maximum temperature     = 18.7C on day 10 at time 14:01
 Minimum temperature     = -2.3C on day 02 at time 06:58
 Maximum humidity        = 97% on day 07 at time 08:23
 Minimum humidity        = 28% on day 25 at time 15:50
 Maximum dewpoint        = 11.8C on day 07 at time 09:36
 Minimum dewpoint        = -6.0C on day 17 at time 6:05
 Maximum pressure        = 1039.0 hPa on day 24 at time 09:05
 Minimum pressure        = 993.0 hPa on day 15 at time 10:08
 Maximum windspeed       = 35.2 kmh from 05( N ) on day 11 at time 22:21
 Maximum gust speed      = 46.3 km/h from 023(NNE) on day 11 at time 21:48
 Maximum heat index      = 18.7C on day 10 at time 14:01
 Max soil temperature= 10.7C
 Min soil temperature= 5.3C
 Avg daily max temp :14.9C
 Avg daily min temp :2.7C
 Growing degrees days :61.6 GDD
 Total windrun = 3729.8km
 ------------------------------------------
 Day, Sunshine hours, ET, max solar, max uv
 ------------------------------------------
 01 00:00hrs ,ET :1.1 mm  ,120.0 W/m  ,3.0 uv
 02 00:00hrs ,ET :1.5 mm  ,120.0 W/m  ,3.0 uv
 03 00:00hrs ,ET :1.2 mm  ,120.0 W/m  ,3.0 uv
 04 00:00hrs ,ET :1.4 mm  ,160.0 W/m  ,4.0 uv
 05 00:00hrs ,ET :3.0 mm  ,120.0 W/m  ,3.0 uv
 06 00:00hrs ,ET :1.1 mm  ,40.0 W/m  ,1.0 uv
 07 00:00hrs ,ET :0.9 mm  ,120.0 W/m  ,3.0 uv
 08 00:00hrs ,ET :0.7 mm  ,120.0 W/m  ,3.0 uv
 09 00:00hrs ,ET :1.5 mm  ,120.0 W/m  ,3.0 uv
 10 00:00hrs ,ET :1.3 mm  ,120.0 W/m  ,3.0 uv
 11 00:00hrs ,ET :1.1 mm  ,80.0 W/m  ,2.0 uv
 12 00:00hrs ,ET :2.6 mm  ,200.0 W/m  ,5.0 uv
 13 00:00hrs ,ET :0.7 mm  ,40.0 W/m  ,1.0 uv
 14 00:00hrs ,ET :2.5 mm  ,120.0 W/m  ,3.0 uv
 15 00:00hrs ,ET :1.6 mm  ,160.0 W/m  ,4.0 uv
 16 00:00hrs ,ET :1.4 mm  ,0.0 W/m  ,0.0 uv
 17 00:00hrs ,ET :1.9 mm  ,280.0 W/m  ,5.0 uv
 18 00:00hrs ,ET :0.8 mm  ,160.0 W/m  ,4.0 uv
 19 00:00hrs ,ET :1.1 mm  ,200.0 W/m  ,5.0 uv
 20 00:00hrs ,ET :1.3 mm  ,200.0 W/m  ,5.0 uv
 21 00:00hrs ,ET :0.4 mm  ,240.0 W/m  ,6.0 uv
 22 00:00hrs ,ET :1.3 mm  ,140.0 W/m  ,2.0 uv
 23 00:00hrs ,ET :1.6 mm  ,240.0 W/m  ,6.0 uv
 24 00:00hrs ,ET :1.2 mm  ,160.0 W/m  ,4.0 uv
 25 00:00hrs ,ET :0.0 mm  ,240.0 W/m  ,6.0 uv
 26 00:00hrs ,ET :0.0 mm  ,0.0 W/m  ,0.0 uv
 27 00:00hrs ,ET :0.0 mm  ,0.0 W/m  ,0.0 uv
 28 00:00hrs ,ET :0.0 mm  ,0.0 W/m  ,0.0 uv
 29 00:00hrs ,ET :0.0 mm  ,0.0 W/m  ,0.0 uv
 30 00:00hrs ,ET :0.0 mm  ,0.0 W/m  ,0.0 uv
 Frost days= 7
 -----------------------------------
 Daily rain totals
 -----------------------------------
  22.0 mm  on day 6
  01.0 mm  on day 8
  03.1 mm  on day 9
  01.0 mm  on day 12
  04.1 mm  on day 13
  11.0 mm  on day 15
  09.2 mm  on day 17
  02.0 mm  on day 18
  01.0 mm  on day 19